Cisco Butte, California Weather observations

Data are for observation ending at time listed.
 Day   Time    Ave.   Ave.  Ave.  Vector   Max.   Stn.    Total    Solar   Ave.   Snow 
  of    of     Air    Rel.  Wind   Wind    Wind   Baro.  Precip.   Rad.    Soil   Depth
Year   Day     Temp.  Hum.  Speed  Dir.    Gust   Pres.                    Temp.       
2015   (PST)    F      %     mph   deg.    mph     mb.     in.     W/m2     F      in. 
---------------------------------------------------------------------------------------  
  28   21:50   36.8    61   13.4   103     18.9   827.0    0.00       0    999.0  159.4
  28   22:00   36.9    60   13.0   100     18.0   827.0    0.00       0    999.0  159.4
  28   22:10   37.1    59   12.8    97     17.6   828.0    0.00       0    999.0  159.2
  28   22:20   37.1    59   12.8    99     18.0   828.0    0.00       0    999.0  159.2
  28   22:30   37.2    58   12.9    97     16.7   828.0    0.00       0    999.0  159.0
  28   22:40   37.0    59   12.3    99     16.4   828.0    0.00       0    999.0  158.5
  28   22:50   36.8    59   12.1   100     16.6   828.0    0.00       0    999.0  159.3
  28   23:00   36.8    59   12.7    99     18.0   828.0    0.00       0    999.0  159.3
  28   23:10   36.6    60   11.8   101     16.0   828.0    0.00       0    999.0  159.4
  28   23:20   36.7    60   12.0   101     19.0   828.0    0.00       0    999.0  159.4
  28   23:30   36.5    60   11.0   105     15.3   828.0    0.00       0    999.0  159.4
  28   23:40   36.5    60   11.8   104     18.0   828.0    0.00       0    999.0  159.4
  28   23:50   36.2    61   11.5   106     15.6   828.0    0.00       0    999.0  159.5
  29    0:00   36.0    62   11.7   106     15.5   828.0    0.00       0    999.0  159.4
  29    0:10   36.0    62   12.0   108     18.5   828.0    0.00       0    999.0  159.4
  29    0:20   36.0    62   11.6   102     17.6   828.0    0.00       0    999.0  159.4
  29    0:30   35.9    62   11.3   101     15.8   828.0    0.00       0    999.0  159.4
  29    0:40   35.9    62   12.2    97     17.1   828.0    0.00       0    999.0  159.4
  29    0:50   35.9    62   11.6    97     18.3   828.0    0.00       0    999.0  159.4
  29    1:00   35.9    62   10.6    96     16.3   828.0    0.00       0    999.0  159.4
  29    1:10   36.0    62   10.2    89     14.0   828.0    0.00       0    999.0  159.4
  29    1:20   36.0    62   10.0    89     12.8   828.0    0.00       0    999.0  159.4
  29    1:30   36.0    63   10.2    92     13.5   828.0    0.00       0    999.0  159.4
  29    1:40   35.9    63    9.9    96     12.9   828.0    0.00       0    999.0  159.4
  29    1:50   36.1    63   12.0    95     15.3   828.0    0.00       0    999.0  159.4
  29    2:00   36.0    63   10.8    97     14.2   828.0    0.00       0    999.0  159.4
  29    2:10   35.9    64   11.4    97     14.2   828.0    0.00       0    999.0  159.3
  29    2:20   36.0    64   11.0    93     14.3   828.0    0.00       0    999.0  159.3
  29    2:30   36.1    63   11.0    95     14.6   828.0    0.00       0    999.0  158.8
  29    2:40   36.2    64   10.4    91     13.2   828.0    0.00       0    999.0  158.7
  29    2:50   35.9    64   11.4    93     14.8   828.0    0.00       0    999.0  158.7
  29    3:00   35.6    65   10.8    93     14.0   827.0    0.00       0    999.0  158.1
  29    3:10   35.5    66   10.4    90     13.0   827.0    0.00       0    999.0  159.1
  29    3:20   35.4    66    9.9    90     12.9   827.0    0.00       0    999.0  159.1
  29    3:30   35.3    67    9.5    94     12.4   827.0    0.00       0    999.0  159.1
  29    3:40   35.2    68    8.7    90     10.8   827.0    0.00       0    999.0  159.1
  29    3:50   35.1    68    9.6    91     12.2   827.0    0.00       0    999.0  159.2
  29    4:00   34.8    69    9.2    95     12.6   827.0    0.00       0    999.0  159.3
  29    4:10   34.6    70    9.7    95     12.3   827.0    0.00       0    999.0  159.3
  29    4:20   34.4    71    9.1    96     11.9   827.0    0.00       0    999.0  159.4
  29    4:30   34.4    71    9.6    95     13.0   827.0    0.00       0    999.0  159.3
  29    4:40   34.2    72    9.5   101     13.9   827.0    0.00       0    999.0  159.2
  29    4:50   34.1    72    9.9    97     12.7   827.0    0.00       0    999.0  159.4
  29    5:00   34.1    72   10.2    95     13.2   827.0    0.00       0    999.0  159.5
  29    5:10   34.0    73   10.3    92     12.8   827.0    0.00       0    999.0  159.5
  29    5:20   34.2    73   10.7    90     14.0   826.0    0.00       0    999.0  159.5
  29    5:30   34.3    73   11.6    90     15.4   826.0    0.00       0    999.0  159.4
  29    5:40   34.4    73   12.1    92     15.0   826.0    0.00       0    999.0  159.3
  29    5:50   34.4    73   12.1    93     14.7   826.0    0.00       0    999.0  159.4
  29    6:00   34.4    73   11.2    90     15.6   826.0    0.00       0    999.0  159.3
  29    6:10   34.3    74   10.5    92     13.1   826.0    0.00       0    999.0  158.5
  29    6:20   34.2    74   10.9    95     13.5   826.0    0.00       0    999.0  159.3
  29    6:30   34.1    75   10.7    88     13.7   826.0    0.00       0    999.0  159.4
  29    6:40   34.0    75   11.2    89     14.2   826.0    0.00       0    999.0  159.5
  29    6:50   33.8    76   11.2    88     14.6   826.0    0.00       0    999.0  159.4
  29    7:00   33.8    77   11.7    91     15.1   826.0    0.00       0    999.0  159.3
  29    7:10   33.8    77   11.1    89     14.8   826.0    0.00       1    999.0  159.2
  29    7:20   33.7    78   10.1    94     12.8   826.0    0.00       2    999.0  159.5
  29    7:30   33.9    78   10.4    89     14.7   826.0    0.00       6    999.0  159.3
  29    7:40   34.2    77   10.9    89     15.6   826.0    0.00      23    999.0  159.3
  29    7:50   34.4    77   11.0    89     14.4   826.0    0.00      35    999.0  159.3
  29    8:00   34.7    76   10.9    94     13.7   827.0    0.00      48    999.0  159.0
  29    8:10   35.2    75   11.6    93     15.3   827.0    0.00      60    999.0   45.6
  29    8:20   35.7    74   11.6   102     16.5   827.0    0.00      72    999.0   31.0
  29    8:30   36.2    73   11.3    99     16.7   827.0    0.00      86    999.0   48.7
  29    8:40   36.8    72   12.4   102     18.7   827.0    0.00     108    999.0  159.4
  29    8:50   37.6    70   12.6   106     17.8   827.0    0.00     121    999.0  159.6
  29    9:00   38.4    68   11.9   106     18.0   827.0    0.00     145    999.0  159.6
  29    9:10   38.9    67   12.6   108     18.9   827.0    0.00     161    999.0  159.6
  29    9:20   39.6    66   11.9   105     18.6   827.0    0.00     180    999.0  159.6
  29    9:30   40.2    64   12.5   106     18.3   827.0    0.00     205    999.0  159.6
  29    9:40   40.7    63   11.6   113     17.9   827.0    0.00     224    999.0  159.6
  29    9:50   41.7    61   10.7   106     15.1   827.0    0.00     236    999.0  159.5
  29   10:00   42.3    59   10.7   116     15.9   827.0    0.00     250    999.0  159.5
  29   10:10   42.8    58   10.7   111     17.0   827.0    0.00     267    999.0  159.5
  29   10:20   42.5    59   11.9   118     17.4   827.0    0.00     255    999.0  159.5
  29   10:30   42.9    58   10.6   115     16.2   827.0    0.00     296    999.0  159.5
  29   10:40   43.6    57   10.2   114     16.4   827.0    0.00     288    999.0  159.5
  29   10:50   44.3    56    9.7   119     14.3   827.0    0.00     272    999.0  159.5
  29   11:00   44.4    55    9.7   108     14.0   827.0    0.00     309    999.0  159.5
  29   11:10   45.0    54    9.7   107     15.4   826.0    0.00     331    999.0  159.5
  29   11:20   45.4    52    8.3   117     14.2   826.0    0.00     348    999.0  159.5
  29   11:30   45.7    52    7.8   127     11.8   826.0    0.00     302    999.0  159.5
  29   11:40   45.8    51    6.4   113      9.6   826.0    0.00     274    999.0  159.5
  29   11:50   46.2    49    6.5   102     10.1   826.0    0.00     359    999.0  159.5
  29   12:00   46.8    48    5.4   121     10.1   826.0    0.00     315    999.0  159.5
  29   12:10   47.3    47    3.5   124      7.2   826.0    0.00     356    999.0  159.5
  29   12:20   47.4    46    3.6   116      7.5   826.0    0.00     387    999.0  159.5
  29   12:30   47.4    46    4.1   120      7.7   826.0    0.00     296    999.0  159.5
  29   12:40   47.9    45    1.4    75      4.2   825.0    0.00     292    999.0  159.5
  29   12:50   48.3    45    4.8   268      8.1   825.0    0.00      89    999.0  159.5
  29   13:00   47.1    46    5.5   277      7.3   825.0    0.00     106    999.0  159.5
  29   13:10   47.1    46    2.9   274      4.9   825.0    0.00     149    999.0  159.5
  29   13:20   49.0    44    2.0   284      6.4   825.0    0.00     390    999.0  159.5
  29   13:30   50.8    43    2.3   288      6.2   825.0    0.00     374    999.0  159.5
  29   13:40   50.7    43    4.7   270      8.8   825.0    0.00     249    999.0  159.5
  29   13:50   48.7    44    5.7   270     11.4   825.0    0.00     169    999.0  159.5
  29   14:00   48.0    48    2.6    61      8.5   825.0    0.00     126    999.0  159.5
  29   14:10   47.6    49    2.2   145      4.9   825.0    0.00     370    999.0  159.5
  29   14:20   49.0    45    6.5   272     13.2   825.0    0.00     373    999.0  159.5
  29   14:30   49.5    44    6.0   230     11.8   825.0    0.00     344    999.0  159.5
  29   14:40   50.6    42    8.4   265     13.6   824.0    0.00     299    999.0  159.5
  29   14:50   49.9    44    9.1   281     14.2   824.0    0.00     140    999.0  159.5
  29   15:00   48.9    46    9.8   278     14.9   824.0    0.00      91    999.0  159.5
  29   15:10   49.4    46   10.4   279     15.4   824.0    0.00      66    999.0  159.5
  29   15:20   49.2    47   10.4   284     15.1   824.0    0.00     164    999.0  159.5
  29   15:30   48.5    49   10.8   282     15.6   824.0    0.00     163    999.0  159.4
  29   15:40   48.6    49    9.6   275     14.1   824.0    0.00      79    999.0  159.3
  29   15:50   48.2    50    8.3   277     12.3   825.0    0.00     128    999.0  159.3
  29   16:00   47.8    51    8.1   273     11.1   825.0    0.00     122    999.0  159.3
  29   16:10   48.0    51    8.5   276     11.7   825.0    0.00     108    999.0  159.3
  29   16:20   47.7    52    8.3   278     11.8   825.0    0.00      91    999.0  159.4
  29   16:30   47.1    54    8.4   281     12.1   825.0    0.00      74    999.0  159.5
  29   16:40   46.7    55    7.9   282     11.4   825.0    0.00      58    999.0  159.5
  29   16:50   45.9    58    8.6   280     11.9   825.0    0.00      44    999.0  159.4
  29   17:00   45.0    60    7.6   278     11.0   825.0    0.00      32    999.0  125.5
  29   17:10   44.4    61    6.7   279      9.1   825.0    0.00      21    999.0   -0.0
  29   17:20   43.8    63    5.2   273      7.3   825.0    0.00      12    999.0   62.8
  29   17:30   42.9    64    1.6   268      5.1   825.0    0.00       4    999.0  139.2
  29   17:40   42.0    66    1.3   270      2.6   825.0    0.00       1    999.0  156.5
  29   17:50   41.6    67    1.4    97      7.7   825.0    0.00       0    999.0  159.1
  29   18:00   40.4    70    5.7   100      8.1   825.0    0.00       0    999.0  159.1
  29   18:10   39.7    73    5.6   102      8.3   825.0    0.00       0    999.0  159.1
  29   18:20   39.9    72    6.6   108      9.6   825.0    0.00       0    999.0  159.1
  29   18:30   39.5    74    6.8   108      9.3   825.0    0.00       0    999.0  157.1
  29   18:40   39.3    75    7.3   111     10.5   825.0    0.00       0    999.0  156.0
  29   18:50   39.4    75    6.9   112      9.6   825.0    0.00       0    999.0  157.2
  29   19:00   39.4    75    6.9   113     10.1   825.0    0.00       0    999.0  158.7
  29   19:10   39.2    76    7.0   114      9.4   825.0    0.00       0    999.0  157.0
  29   19:20   39.0    77    6.9   112      9.4   825.0    0.00       0    999.0  156.4
  29   19:30   39.0    77    7.1   111     10.8   825.0    0.00       0    999.0  157.5
  29   19:40   39.0    77    8.0   106     10.5   825.0    0.00       0    999.0  155.5
  29   19:50   39.1    77    7.8    98     10.0   825.0    0.00       0    999.0  157.7
  29   20:00   39.0    77    7.4    99      9.4   825.0    0.00       0    999.0  156.3
  29   20:10   39.0    77    7.6    96      9.7   825.0    0.00       0    999.0  158.4
  29   20:20   38.8    77    7.6   100     10.8   825.0    0.00       0    999.0  159.2
  29   20:30   38.7    78    7.5   100     10.5   825.0    0.00       0    999.0  156.7
  29   20:40   38.5    78    7.9   102     10.9   825.0    0.00       0    999.0  156.0
  29   20:50   38.6    78    8.0   102     12.0   825.0    0.00       0    999.0  156.0
  29   21:00   38.6    78    7.1    99      9.3   825.0    0.00       0    999.0  155.7
  29   21:10   38.7    77    8.3    92     12.6   825.0    0.00       0    999.0  157.6
  29   21:20   38.7    76    9.3    91     13.2   825.0    0.00       0    999.0  158.8
  29   21:30   39.0    74   12.0    89     15.7   825.0    0.00       0    999.0  156.7
  29   21:40   38.7    75   10.2    90     14.8   825.0    0.00       0    999.0  157.3

Return to Cisco Butte graphs page.


Western Regional Climate Center,wrcc@dri.edu